createdAt,value
2018-05-26T04:01:27.963Z,68.40
2018-05-26T04:03:57.015Z,68.30
2018-05-26T04:06:26.029Z,68.30
2018-05-26T04:08:55.877Z,68.60
2018-05-26T04:11:24.974Z,68.50
2018-05-26T04:13:54.863Z,68.80
2018-05-26T04:16:23.870Z,68.80
2018-05-26T04:18:52.925Z,69.10
2018-05-26T04:21:22.724Z,69.50
2018-05-26T04:23:51.770Z,69.40
2018-05-26T04:26:20.788Z,69.50
2018-05-26T04:28:49.823Z,69.80
2018-05-26T04:31:18.844Z,69.50
2018-05-26T04:33:47.888Z,69.20
2018-05-26T04:36:16.927Z,69.20
2018-05-26T04:38:45.944Z,69.50
2018-05-26T04:41:14.999Z,70.00
2018-05-26T04:43:44.808Z,70.10
2018-05-26T04:46:13.816Z,70.10
2018-05-26T04:48:42.852Z,69.90
2018-05-26T04:51:11.869Z,70.90
2018-05-26T04:53:40.887Z,70.40
2018-05-26T04:56:09.934Z,71.70
2018-05-26T04:58:38.940Z,71.10
2018-05-26T05:01:08.001Z,70.90
2018-05-26T05:03:37.016Z,69.90
2018-05-26T05:06:06.076Z,69.50
2018-05-26T05:08:35.112Z,70.30
2018-05-26T05:11:04.179Z,70.60
2018-05-26T05:13:33.212Z,70.40
2018-05-26T05:16:02.375Z,70.20
2018-05-26T05:18:31.424Z,70.10
2018-05-26T05:21:00.481Z,69.70
2018-05-26T05:23:29.526Z,69.70
2018-05-26T05:25:58.575Z,69.50
2018-05-26T05:28:27.587Z,69.50
2018-05-26T05:30:57.408Z,69.40
2018-05-26T05:33:26.426Z,69.30
2018-05-26T05:35:55.502Z,69.10
2018-05-26T05:38:24.529Z,69.10
2018-05-26T05:40:53.548Z,68.80
2018-05-26T05:43:22.579Z,68.60
2018-05-26T05:45:51.629Z,68.80
2018-05-26T05:48:20.678Z,68.30
2018-05-26T05:50:49.702Z,68.40
2018-05-26T05:53:18.712Z,67.90
2018-05-26T05:55:47.756Z,67.40
2018-05-26T05:58:16.803Z,67.40
2018-05-26T06:00:45.815Z,67.60
2018-05-26T06:03:14.870Z,66.80
2018-05-26T06:05:43.890Z,66.40
2018-05-26T06:08:12.935Z,65.90
2018-05-26T06:10:41.988Z,65.20
2018-05-26T06:13:10.996Z,64.70
2018-05-26T06:15:40.816Z,63.80
2018-05-26T06:18:10.596Z,63.10
2018-05-26T06:20:39.629Z,63.10
2018-05-26T06:23:08.691Z,62.80
2018-05-26T06:25:37.765Z,62.30
2018-05-26T06:28:06.824Z,61.30
2018-05-26T06:30:35.845Z,60.80
2018-05-26T06:33:04.900Z,61.20
2018-05-26T06:35:34.679Z,59.30
2018-05-26T06:38:03.728Z,59.20
2018-05-26T06:40:32.749Z,59.10
2018-05-26T06:43:01.799Z,58.50
2018-05-26T06:45:30.820Z,58.20
2018-05-26T06:47:59.901Z,58.60
2018-05-26T06:50:29.163Z,57.70
2018-05-26T06:52:58.968Z,56.70
2018-05-26T06:55:27.976Z,56.70
2018-05-26T06:57:57.783Z,56.00
2018-05-26T07:00:26.786Z,55.90
2018-05-26T07:02:55.824Z,56.30
2018-05-26T07:05:24.831Z,56.60
2018-05-26T07:07:53.866Z,54.90
2018-05-26T07:10:23.645Z,54.60
2018-05-26T07:12:52.701Z,54.50
2018-05-26T07:15:21.735Z,54.10
2018-05-26T07:17:50.743Z,53.00
2018-05-26T07:20:19.797Z,50.90
2018-05-26T07:22:48.809Z,50.50
2018-05-26T07:25:18.029Z,51.10
2018-05-26T07:27:47.099Z,51.90
2018-05-26T07:30:16.160Z,49.70
2018-05-26T07:32:45.200Z,50.40
2018-05-26T07:35:14.206Z,50.70
2018-05-26T07:37:43.255Z,50.90
2018-05-26T07:40:12.262Z,49.60
2018-05-26T07:42:41.323Z,49.30
2018-05-26T07:45:10.351Z,49.00
2018-05-26T07:47:39.382Z,48.10
2018-05-26T07:50:08.415Z,49.20
2018-05-26T07:52:37.425Z,47.30
2018-05-26T07:55:06.466Z,49.00
2018-05-26T07:57:36.272Z,47.00
2018-05-26T08:00:05.288Z,47.00
2018-05-26T08:02:35.092Z,47.60
2018-05-26T08:05:04.099Z,47.60
2018-05-26T08:07:33.209Z,47.10
2018-05-26T08:10:02.224Z,46.60
2018-05-26T08:12:31.244Z,46.50
2018-05-26T08:15:00.460Z,46.30
2018-05-26T08:17:29.537Z,46.80
2018-05-26T08:19:58.491Z,46.50
2018-05-26T08:22:27.640Z,46.70
2018-05-26T08:24:56.651Z,46.90
2018-05-26T08:27:26.509Z,47.00
2018-05-26T08:29:55.521Z,47.00
2018-05-26T08:32:24.532Z,46.90
2018-05-26T08:34:53.575Z,48.30
2018-05-26T08:37:22.603Z,46.80
2018-05-26T08:39:51.690Z,47.40
2018-05-26T08:42:20.726Z,46.90
2018-05-26T08:44:49.759Z,46.10
2018-05-26T08:47:18.768Z,44.60
2018-05-26T08:49:47.779Z,44.60
2018-05-26T08:52:16.871Z,44.50
2018-05-26T08:54:45.953Z,44.40
2018-05-26T08:57:14.935Z,44.40
2018-05-26T08:59:44.087Z,44.50
2018-05-26T09:02:13.177Z,43.10
2018-05-26T09:04:43.021Z,43.90
2018-05-26T09:07:12.108Z,43.90
2018-05-26T09:09:41.163Z,43.40
2018-05-26T09:12:10.235Z,44.60
2018-05-26T09:14:39.282Z,43.20
2018-05-26T09:17:09.173Z,42.40
2018-05-26T09:19:38.206Z,42.50
2018-05-26T09:22:07.264Z,43.20
2018-05-26T09:24:36.294Z,42.50
2018-05-26T09:27:05.328Z,41.80
2018-05-26T09:29:34.346Z,41.60
2018-05-26T09:32:03.428Z,41.60
2018-05-26T09:34:32.472Z,41.30
2018-05-26T09:37:01.478Z,41.00
2018-05-26T09:39:30.534Z,40.90
2018-05-26T09:41:59.542Z,41.50
2018-05-26T09:44:28.595Z,40.40
2018-05-26T09:46:57.613Z,38.90
2018-05-26T09:49:26.622Z,38.80
2018-05-26T09:51:55.659Z,38.20
2018-05-26T09:54:24.698Z,38.40
2018-05-26T09:56:53.723Z,38.40
2018-05-26T09:59:22.767Z,37.90
2018-05-26T10:01:51.782Z,37.40
2018-05-26T10:04:20.854Z,38.00
2018-05-26T10:06:49.851Z,37.10
2018-05-26T10:09:18.869Z,38.30
2018-05-26T10:11:48.711Z,35.10
2018-05-26T10:14:17.723Z,34.90
2018-05-26T10:16:46.732Z,35.80
2018-05-26T10:19:15.789Z,35.30
2018-05-26T10:21:44.795Z,36.50
2018-05-26T10:24:13.799Z,36.90
2018-05-26T10:26:43.963Z,35.00
2018-05-26T10:29:12.977Z,36.30
2018-05-26T10:31:41.991Z,36.40
2018-05-26T10:34:11.031Z,35.90
2018-05-26T10:36:40.079Z,35.80
2018-05-26T10:39:09.112Z,35.50
2018-05-26T10:41:38.169Z,35.20
2018-05-26T10:44:07.187Z,35.30
2018-05-26T10:46:36.212Z,36.40
2018-05-26T10:49:05.251Z,37.30
2018-05-26T10:51:34.259Z,36.60
2018-05-26T10:54:03.272Z,36.00
2018-05-26T10:56:32.334Z,35.10
2018-05-26T10:59:01.357Z,36.10
2018-05-26T11:01:30.400Z,34.30
2018-05-26T11:03:59.444Z,34.80
2018-05-26T11:06:43.086Z,34.60
2018-05-26T11:09:12.132Z,34.00
2018-05-26T11:11:41.148Z,34.20
2018-05-26T11:14:10.232Z,34.10
2018-05-26T11:16:39.251Z,33.40
2018-05-26T11:19:08.357Z,33.30
2018-05-26T11:21:37.407Z,34.60
2018-05-26T11:24:07.437Z,34.30
2018-05-26T11:26:36.366Z,34.30
2018-05-26T11:29:05.366Z,34.30
2018-05-26T11:31:34.466Z,33.30
2018-05-26T11:34:03.514Z,33.70
2018-05-26T11:36:32.523Z,34.30
2018-05-26T11:39:01.575Z,34.50
2018-05-26T11:41:30.612Z,32.50
2018-05-26T11:43:59.648Z,32.10
2018-05-26T11:46:28.658Z,31.70
2018-05-26T11:48:57.711Z,32.20
2018-05-26T11:51:26.733Z,30.90
2018-05-26T11:53:55.742Z,31.90
2018-05-26T11:56:24.782Z,30.90
2018-05-26T11:58:53.827Z,32.50
2018-05-26T12:01:22.846Z,32.60
2018-05-26T12:03:51.887Z,32.90
2018-05-26T12:06:20.907Z,32.70
2018-05-26T12:08:49.973Z,33.60
2018-05-26T12:11:18.983Z,34.00
2018-05-26T12:13:48.032Z,35.00
2018-05-26T12:16:17.040Z,33.90
2018-05-26T12:18:46.108Z,34.20
2018-05-26T12:21:15.141Z,35.20
2018-05-26T12:23:44.212Z,35.60
2018-05-26T12:26:13.222Z,35.40
2018-05-26T12:28:42.263Z,34.70
2018-05-26T12:31:11.273Z,33.40
2018-05-26T12:33:41.077Z,33.50
2018-05-26T12:36:10.095Z,33.40
2018-05-26T12:38:39.135Z,32.80
2018-05-26T12:41:08.142Z,33.20
2018-05-26T12:43:37.171Z,33.40
2018-05-26T12:46:06.189Z,33.50
2018-05-26T12:48:35.242Z,31.60
2018-05-26T12:51:04.252Z,29.90
2018-05-26T12:53:33.276Z,29.00
2018-05-26T12:56:02.324Z,28.20
2018-05-26T12:58:31.335Z,26.90
2018-05-26T13:01:01.165Z,25.50
2018-05-26T13:03:30.189Z,25.50
2018-05-26T13:05:59.220Z,26.70
2018-05-26T13:08:29.000Z,26.30
2018-05-26T13:10:58.007Z,25.90
2018-05-26T13:13:27.103Z,26.00
2018-05-26T13:15:56.927Z,24.90
2018-05-26T13:18:25.982Z,24.90
2018-05-26T13:20:55.043Z,24.90
2018-05-26T13:23:24.112Z,23.70
2018-05-26T13:25:53.170Z,23.40
2018-05-26T13:28:22.174Z,23.30
2018-05-26T13:30:51.218Z,22.70
2018-05-26T13:33:20.999Z,23.10
2018-05-26T13:35:50.055Z,23.10
2018-05-26T13:38:19.088Z,22.80
2018-05-26T13:40:48.119Z,21.00
2018-05-26T13:43:17.129Z,20.40
2018-05-26T13:45:46.215Z,21.40
2018-05-26T13:48:15.226Z,21.20
2018-05-26T13:50:44.304Z,20.40
2018-05-26T13:53:13.416Z,19.80
2018-05-26T13:55:42.491Z,19.50
2018-05-26T13:58:11.444Z,19.30
2018-05-26T14:00:40.594Z,19.20
2018-05-26T14:03:09.608Z,20.10
2018-05-26T14:05:38.616Z,20.00
2018-05-26T14:08:07.719Z,20.60
2018-05-26T14:10:36.750Z,20.00
2018-05-26T14:13:06.531Z,20.40
2018-05-26T14:15:35.604Z,20.40
2018-05-26T14:18:04.608Z,21.50
2018-05-26T14:20:33.616Z,19.90
2018-05-26T14:23:02.672Z,20.10
2018-05-26T14:25:31.675Z,20.10
2018-05-26T14:28:00.743Z,20.30
2018-05-26T14:30:30.521Z,20.70
2018-05-26T14:32:59.558Z,20.60
2018-05-26T14:35:28.619Z,21.40
2018-05-26T14:37:57.658Z,22.00
2018-05-26T14:40:26.671Z,22.10
2018-05-26T14:42:55.735Z,21.40
2018-05-26T14:45:25.290Z,20.00
2018-05-26T14:47:54.294Z,20.30
2018-05-26T14:50:23.376Z,21.30
2018-05-26T14:52:52.385Z,21.50
2018-05-26T14:55:21.409Z,20.70
2018-05-26T14:57:50.459Z,21.50
2018-05-26T15:00:19.471Z,21.10
2018-05-26T15:02:48.548Z,21.10
2018-05-26T15:05:17.576Z,21.10
2018-05-26T15:07:47.394Z,21.00
2018-05-26T15:10:16.411Z,20.40
2018-05-26T15:12:45.497Z,22.00
2018-05-26T15:15:15.289Z,21.80
2018-05-26T15:17:44.328Z,21.80
2018-05-26T15:20:13.404Z,23.20
2018-05-26T15:22:42.471Z,22.40
2018-05-26T15:25:11.449Z,23.80
2018-05-26T15:27:40.483Z,23.30
2018-05-26T15:30:09.532Z,23.20
2018-05-26T15:32:38.577Z,23.10
2018-05-26T15:35:07.652Z,24.10
2018-05-26T15:37:36.676Z,23.30
2018-05-26T15:40:05.723Z,24.00
2018-05-26T15:42:34.775Z,25.00
2018-05-26T15:45:03.836Z,24.70
2018-05-26T15:47:32.847Z,24.90
2018-05-26T15:50:01.908Z,25.40
2018-05-26T15:52:31.741Z,26.20
2018-05-26T15:55:00.780Z,25.60
2018-05-26T15:57:29.787Z,25.10
2018-05-26T15:59:58.869Z,25.50
2018-05-26T16:02:27.895Z,25.50
2018-05-26T16:04:56.943Z,26.20
2018-05-26T16:07:25.966Z,25.60
2018-05-26T16:09:55.009Z,25.80
2018-05-26T16:12:24.103Z,26.70
2018-05-26T16:14:53.143Z,26.80
2018-05-26T16:17:22.200Z,26.50
2018-05-26T16:19:51.208Z,27.00
2018-05-26T16:22:20.227Z,27.50
2018-05-26T16:24:49.286Z,27.40
2018-05-26T16:27:18.297Z,27.90
2018-05-26T16:29:48.099Z,28.00
2018-05-26T16:32:17.121Z,28.90
2018-05-26T16:34:46.163Z,29.40
2018-05-26T16:37:15.179Z,29.60
2018-05-26T16:39:44.228Z,29.50
2018-05-26T16:42:13.999Z,30.30
2018-05-26T16:44:43.086Z,30.20
2018-05-26T16:47:12.113Z,29.70
2018-05-26T16:49:41.127Z,30.80
2018-05-26T16:52:10.175Z,30.60
2018-05-26T16:54:39.217Z,30.80
2018-05-26T16:57:09.007Z,31.50
2018-05-26T16:59:38.055Z,31.50
2018-05-26T17:02:07.078Z,32.00
2018-05-26T17:04:36.121Z,33.00
2018-05-26T17:07:05.136Z,33.60
2018-05-26T17:09:34.188Z,33.90
2018-05-26T17:12:04.011Z,39.20
2018-05-26T17:14:33.081Z,39.30
2018-05-26T17:17:02.131Z,40.80
2018-05-26T17:19:31.140Z,41.60
2018-05-26T17:22:00.148Z,42.30
2018-05-26T17:24:29.239Z,42.90
2018-05-26T17:26:58.373Z,43.20
2018-05-26T17:29:27.538Z,44.00
2018-05-26T17:31:56.688Z,44.20
2018-05-26T17:34:25.849Z,44.20
2018-05-26T17:36:54.954Z,44.80
2018-05-26T17:39:24.038Z,46.40
2018-05-26T17:41:53.150Z,47.00
2018-05-26T17:44:22.239Z,47.70
2018-05-26T17:46:51.275Z,49.20
2018-05-26T17:49:20.340Z,49.20
2018-05-26T17:51:50.274Z,49.50
2018-05-26T17:54:19.287Z,49.50
2018-05-26T17:56:48.487Z,50.20
2018-05-26T17:59:17.609Z,50.70
2018-05-26T18:01:47.693Z,51.20
2018-05-26T18:04:16.759Z,51.90
2018-05-26T18:06:46.528Z,52.60
2018-05-26T18:09:15.591Z,52.60
2018-05-26T18:11:44.594Z,52.70
2018-05-26T18:14:13.638Z,53.70
2018-05-26T18:16:42.647Z,54.50
2018-05-26T18:19:12.449Z,54.60
2018-05-26T18:21:42.291Z,54.60
2018-05-26T18:24:11.299Z,54.60
2018-05-26T18:26:40.339Z,55.20
2018-05-26T18:29:09.356Z,55.30
2018-05-26T18:31:38.394Z,55.40
2018-05-26T18:34:07.440Z,55.50
2018-05-26T18:36:36.461Z,55.80
2018-05-26T18:39:05.563Z,55.90
2018-05-26T18:41:34.600Z,56.50
2018-05-26T18:44:03.643Z,56.70
2018-05-26T18:46:32.658Z,57.00
2018-05-26T18:49:01.728Z,57.00
2018-05-26T18:51:30.745Z,56.90
2018-05-26T18:54:00.010Z,57.40
2018-05-26T18:56:29.079Z,58.40
2018-05-26T18:58:58.084Z,57.80
2018-05-26T19:01:27.136Z,58.20
2018-05-26T19:03:56.152Z,58.10
2018-05-26T19:06:25.767Z,58.50
2018-05-26T19:08:55.536Z,59.40
2018-05-26T19:11:24.581Z,59.30
2018-05-26T19:13:54.359Z,59.40
2018-05-26T19:16:23.400Z,60.00
2018-05-26T19:18:53.173Z,59.70
2018-05-26T19:21:22.231Z,59.70
2018-05-26T19:23:51.255Z,59.80
2018-05-26T19:26:20.309Z,59.80
2018-05-26T19:28:50.176Z,60.10
2018-05-26T19:31:19.238Z,60.70
2018-05-26T19:33:48.280Z,60.10
2018-05-26T19:36:18.108Z,61.40
2018-05-26T19:38:47.134Z,61.40
2018-05-26T19:41:16.175Z,61.30
2018-05-26T19:43:45.958Z,61.50
2018-05-26T19:46:15.017Z,61.50
2018-05-26T19:48:44.060Z,62.00
2018-05-26T19:51:13.069Z,62.00
2018-05-26T19:53:42.107Z,62.30
2018-05-26T19:56:11.147Z,62.30
2018-05-26T19:58:40.935Z,62.60
